FQTT

Chingozi Airport

Tete, Mozambique
TAF FQTT 182200Z 1900/2000 VRB03KT 9999 BKN020 BECMG 1906/1908 FEW025 BECMG 1912/1914 02008KT CAVOK BECMG 1918/1920 33007KT TX32/1913Z TN20/1903Z
Issued Valid From Valid To
Dec-18 @ 22:00 UTC
(2 hours ago)
Dec-19 @ 00:00 UTC
(in 5 minutes)
Dec-20 @ 00:00 UTC
(in 24 hours)
Dec-19 @ 00:00 to Dec-19 @ 06:00
TAF FQTT 182200Z 1900/2000 VRB03KT 9999 BKN020
Wind Visibility Clouds
Variable at 3 knots 10,000+ meters
  • Broken at 2,000' AGL
Becoming Dec-19 @ 06:00 to Dec-19 @ 12:00
BECMG 1906/1908 FEW025
Wind Visibility Clouds
Variable at 3 knots 10,000+ meters
  • Few at 2,500' AGL
Becoming Dec-19 @ 12:00 to Dec-19 @ 18:00
BECMG 1912/1914 02008KT CAVOK
Wind Visibility Clouds Conditions
20° at 8 knots 10,000+ meters
  • No significant clouds
Becoming Dec-19 @ 18:00 to Dec-20 @ 00:00
BECMG 1918/1920 33007KT TX32/1913Z TN20/1903Z
Wind Visibility Clouds Conditions
330° at 7 knots 10,000+ meters
  • No significant clouds
TAF FQTT 182200Z 1900/2000 VRB03KT 9999 BKN020 BECMG 1906/1908 FEW025 BECMG 1912/1914 02008KT CAVOK BECMG 1918/1920 33007KT TX32/1913Z TN20/1903Z
Issued Dec-18 @ 22:00 UTC
(2 hours ago)
Valid From Dec-19 @ 00:00 UTC
(in 5 minutes)
Valid To Dec-20 @ 00:00 UTC
(in 24 hours)
Dec-19 @ 00:00 - Dec-19 @ 06:00
Wind Visibility
Variable at 3 knots 10,000+ meters
Clouds
  • Broken at 2,000' AGL
Becoming Dec-19 @ 06:00 - Dec-19 @ 12:00
Wind Visibility
Variable at 3 knots 10,000+ meters
Clouds
  • Few at 2,500' AGL
Becoming Dec-19 @ 12:00 - Dec-19 @ 18:00
Wind Visibility
20° at 8 knots 10,000+ meters
Clouds
  • No significant clouds
Conditions
Becoming Dec-19 @ 18:00 - Dec-20 @ 00:00
Wind Visibility
330° at 7 knots 10,000+ meters
Clouds
  • No significant clouds
Conditions